KBWG 250853Z AUTO 19009KT 10SM -RA FEW039 BKN075 12/10 A2993 RMK AO2 SLP132 P0015 60025 T01220100 58014